Time;durP1;ratioP1;P1;durP2;ratioP2;P2;SDS_P1;SDS_P2;PMS_P1;PMS_P2;Temp;Humidity;BMP_temperature;BMP_pressure;BME280_temperature;BME280_humidity;BME280_pressure;Samples;Min_cycle;Max_cycle;Signal;HPM_P1;HPM_P2
2024/03/12 00:01:29;;;;;;;21.15;13.93;;;;;;;5.79;84.50;99912.03;1741084;82;25469;-78
2024/03/12 00:03:56;;;;;;;18.35;12.98;;;;;;;5.78;84.67;99908.28;1741029;82;25573;-79
2024/03/12 00:06:23;;;;;;;19.73;14.03;;;;;;;5.78;84.79;99912.31;1740129;82;25251;-78
2024/03/12 00:08:49;;;;;;;21.17;14.13;;;;;;;5.76;84.49;99903.20;1741165;82;27348;-79
2024/03/12 00:11:16;;;;;;;20.30;14.10;;;;;;;5.77;84.59;99910.17;1740468;81;25476;-77
2024/03/12 00:13:42;;;;;;;19.32;13.88;;;;;;;5.77;84.59;99903.98;1741146;82;25582;-78
2024/03/12 00:16:09;;;;;;;19.07;13.40;;;;;;;5.75;84.81;99904.27;1741061;82;25813;-78
2024/03/12 00:18:35;;;;;;;22.32;14.78;;;;;;;5.75;84.52;99899.45;1740334;82;25473;-78
2024/03/12 00:21:02;;;;;;;20.30;15.03;;;;;;;5.75;84.99;99894.87;1740779;82;27327;-77
2024/03/12 00:23:29;;;;;;;20.85;13.85;;;;;;;5.74;85.15;99897.88;1740619;82;25717;-77
2024/03/12 00:25:56;;;;;;;21.25;13.90;;;;;;;5.73;84.67;99895.72;1740495;82;25530;-77
2024/03/12 00:28:23;;;;;;;19.25;14.15;;;;;;;5.72;84.71;99897.34;1740733;82;25633;-76
2024/03/12 00:30:50;;;;;;;21.25;14.07;;;;;;;5.72;84.72;99900.02;1739092;82;25627;-76
2024/03/12 00:33:18;;;;;;;21.50;13.88;;;;;;;5.71;84.79;99897.89;1740915;82;27575;-76
2024/03/12 00:35:46;;;;;;;20.12;13.72;;;;;;;5.71;85.07;99887.16;1740046;82;25583;-77
2024/03/12 00:38:12;;;;;;;21.70;14.73;;;;;;;5.69;85.01;99888.55;1738474;82;25710;-77
2024/03/12 00:40:42;;;;;;;21.70;13.45;;;;;;;5.68;84.85;99884.25;1740879;82;25686;-77
2024/03/12 00:43:08;;;;;;;21.68;14.33;;;;;;;5.67;85.72;99889.34;1740881;82;25544;-77
2024/03/12 00:45:36;;;;;;;20.88;14.13;;;;;;;5.65;85.21;99887.50;1741714;82;27320;-78
2024/03/12 00:48:13;;;;;;;20.60;14.13;;;;;;;5.64;85.62;99885.37;1740275;82;25393;-78
2024/03/12 00:50:38;;;;;;;21.23;14.15;;;;;;;5.64;85.64;99885.92;1738375;82;25616;-77
2024/03/12 00:53:07;;;;;;;23.50;15.13;;;;;;;5.63;85.60;99883.75;1741095;82;26264;-77
2024/03/12 00:55:36;;;;;;;22.97;14.53;;;;;;;5.61;85.80;99878.67;1740730;82;25395;-77
2024/03/12 00:58:04;;;;;;;22.65;14.58;;;;;;;5.61;85.78;99879.22;1740893;82;27310;-78
2024/03/12 01:00:33;;;;;;;23.12;14.73;;;;;;;5.59;85.69;99879.50;1740243;82;25668;-77
2024/03/12 01:03:00;;;;;;;23.62;14.68;;;;;;;5.59;86.24;99876.83;1739707;82;25621;-77
2024/03/12 01:05:36;;;;;;;21.90;14.75;;;;;;;5.58;85.71;99879.27;1739568;82;26257;-77
2024/03/12 01:07:59;;;;;;;24.95;14.58;;;;;;;5.58;85.72;99867.19;1740634;82;25441;-77
2024/03/12 01:10:28;;;;;;;20.95;14.30;;;;;;;5.60;85.90;99869.56;1740999;82;28352;-77
2024/03/12 01:12:58;;;;;;;22.97;14.73;;;;;;;5.59;85.94;99862.62;1740923;82;25461;-77
2024/03/12 01:15:25;;;;;;;19.70;13.62;;;;;;;5.60;85.90;99863.67;1740854;82;25461;-77
2024/03/12 01:17:53;;;;;;;21.93;14.40;;;;;;;5.60;86.06;99866.36;1740915;82;26356;-77
2024/03/12 01:20:21;;;;;;;23.50;15.05;;;;;;;5.59;86.28;99863.41;1738117;82;25448;-77
2024/03/12 01:22:54;;;;;;;22.67;14.55;;;;;;;5.57;86.18;99868.81;1740844;82;28008;-77
2024/03/12 01:25:23;;;;;;;24.75;15.63;;;;;;;5.55;86.26;99857.55;1738385;82;25630;-77
2024/03/12 01:27:47;;;;;;;;;;;;;;;5.56;86.50;99860.50;1743091;82;25566;-77
2024/03/12 01:30:16;;;;;;;22.15;13.90;;;;;;;5.54;86.95;99866.15;1740830;82;25700;-78
2024/03/12 01:32:47;;;;;;;25.25;14.78;;;;;;;5.53;86.59;99859.17;1740932;82;25404;-78
2024/03/12 01:35:14;;;;;;;25.20;15.68;;;;;;;5.53;86.86;99855.70;1739870;82;27359;-77
2024/03/12 01:37:45;;;;;;;25.55;14.80;;;;;;;5.54;86.84;99857.31;1740794;82;25574;-78
2024/03/12 01:40:25;;;;;;;28.07;16.40;;;;;;;5.55;87.35;99855.69;1740215;82;25643;-78
2024/03/12 01:42:56;;;;;;;26.30;15.75;;;;;;;5.54;87.21;99858.09;1740341;82;25617;-76
2024/03/12 01:45:25;;;;;;;25.30;14.90;;;;;;;5.53;87.08;99868.56;1740921;82;25590;-77
2024/03/12 01:47:54;;;;;;;25.80;15.78;;;;;;;5.52;87.19;99858.93;1740324;81;27322;-77
2024/03/12 01:50:22;;;;;;;;;;;;;;;5.52;87.60;99865.64;1743095;82;25659;-77
2024/03/12 01:52:53;;;;;;;23.80;14.83;;;;;;;5.52;87.32;99868.32;1740548;82;25638;-77
2024/03/12 01:55:20;;;;;;;25.43;15.32;;;;;;;5.53;87.36;99865.09;1740195;82;25601;-77
2024/03/12 01:57:47;;;;;;;27.90;15.70;;;;;;;5.53;87.47;99863.75;1740902;82;25627;-76
2024/03/12 02:00:15;;;;;;;25.95;15.72;;;;;;;5.53;87.35;99861.86;1740056;82;27344;-76
2024/03/12 02:02:43;;;;;;;27.00;15.85;;;;;;;5.53;87.39;99868.56;1741113;82;25474;-76
2024/03/12 02:05:12;;;;;;;24.50;15.32;;;;;;;5.55;87.54;99868.28;1741010;82;25425;-77
2024/03/12 02:07:46;;;;;;;27.70;15.50;;;;;;;5.53;87.90;99861.06;1738783;82;25665;-76
2024/03/12 02:10:15;;;;;;;25.10;15.68;;;;;;;5.54;87.69;99868.83;1738104;82;25571;-77
2024/03/12 02:12:47;;;;;;;27.10;16.23;;;;;;;5.53;87.85;99871.24;1741062;82;27373;-76
2024/03/12 02:15:12;;;;;;;29.23;16.32;;;;;;;5.50;88.16;99857.09;1739717;82;25958;-77
2024/03/12 02:17:39;;;;;;;27.75;16.35;;;;;;;5.51;88.22;99862.69;1740963;82;25405;-77
2024/03/12 02:20:11;;;;;;;23.67;16.02;;;;;;;5.50;88.16;99859.77;1740591;82;25635;-76
2024/03/12 02:22:38;;;;;;;29.85;17.42;;;;;;;5.50;88.23;99859.77;1741258;82;25409;-75
2024/03/12 02:25:06;;;;;;;29.90;16.65;;;;;;;5.49;88.07;99856.81;1740716;82;28207;-76
2024/03/12 02:27:33;;;;;;;25.88;16.65;;;;;;;5.50;88.43;99855.74;1739044;82;25720;-76
2024/03/12 02:30:00;;;;;;;29.95;17.00;;;;;;;5.51;88.28;99860.00;1741178;82;25552;-75
2024/03/12 02:32:26;;;;;;;30.43;16.48;;;;;;;5.51;88.35;99855.19;1741087;82;25648;-76
2024/03/12 02:34:54;;;;;;;29.77;16.62;;;;;;;5.51;89.22;99858.66;1741182;81;25412;-76
2024/03/12 02:37:21;;;;;;;29.07;16.97;;;;;;;5.50;88.74;99857.61;1741092;82;27335;-76
2024/03/12 02:39:47;;;;;;;28.80;16.77;;;;;;;5.51;88.73;99860.00;1740809;82;25410;-76
2024/03/12 02:42:15;;;;;;;29.63;17.20;;;;;;;5.51;88.82;99856.53;1740782;82;25393;-76
2024/03/12 02:44:42;;;;;;;29.50;16.65;;;;;;;5.51;88.71;99848.48;1740720;82;25622;-77
2024/03/12 02:47:09;;;;;;;30.65;17.05;;;;;;;5.52;88.77;99850.09;1740721;82;25586;-77
2024/03/12 02:49:36;;;;;;;31.15;17.50;;;;;;;5.52;89.00;99859.48;1740494;82;27335;-78
2024/03/12 02:52:03;;;;;;;29.90;17.25;;;;;;;5.52;88.87;99855.46;1740873;82;25652;-76
2024/03/12 02:54:30;;;;;;;30.27;17.52;;;;;;;5.51;88.80;99857.33;1740889;82;25638;-77
2024/03/12 02:56:56;;;;;;;28.62;17.48;;;;;;;5.52;88.99;99857.59;1740793;82;26206;-77
2024/03/12 02:59:27;;;;;;;31.15;17.55;;;;;;;5.51;89.00;99854.64;1740762;82;25417;-77
2024/03/12 03:01:56;;;;;;;31.17;17.52;;;;;;;5.51;89.19;99858.66;1741034;82;27342;-76
2024/03/12 03:04:22;;;;;;;;;;;;;;;5.51;89.13;99854.64;1743324;82;25735;-76
2024/03/12 03:06:53;;;;;;;29.15;15.80;;;;;;;5.51;89.26;99845.80;1741020;82;25163;-77
2024/03/12 03:09:21;;;;;;;31.02;16.55;;;;;;;5.49;89.24;99844.74;1741035;82;26290;-76
2024/03/12 03:11:47;;;;;;;28.80;16.75;;;;;;;5.47;90.28;99842.89;1741074;82;25446;-76
2024/03/12 03:14:14;;;;;;;30.25;18.60;;;;;;;5.44;89.73;99836.75;1740524;82;27400;-77
2024/03/12 03:16:41;;;;;;;31.82;17.05;;;;;;;5.43;89.98;99839.98;1740836;82;25618;-77
2024/03/12 03:19:08;;;;;;;30.32;16.15;;;;;;;5.45;89.72;99837.02;1740693;82;25578;-77
2024/03/12 03:21:34;;;;;;;29.30;17.17;;;;;;;5.46;89.59;99844.52;1739696;82;25593;-77
2024/03/12 03:24:01;;;;;;;34.00;18.00;;;;;;;5.45;90.18;99835.68;1740599;82;25644;-77
2024/03/12 03:26:27;;;;;;;34.27;17.32;;;;;;;5.43;89.96;99841.84;1739446;82;27393;-78
2024/03/12 03:28:54;;;;;;;32.70;17.90;;;;;;;5.43;89.85;99832.46;1740662;82;25587;-78
2024/03/12 03:31:21;;;;;;;36.73;18.50;;;;;;;5.44;89.94;99834.08;1740673;82;25593;-78
2024/03/12 03:33:48;;;;;;;33.05;18.50;;;;;;;5.45;90.66;99835.68;1740735;82;25673;-78
2024/03/12 03:36:14;;;;;;;29.37;16.82;;;;;;;5.46;90.33;99839.16;1740946;82;25558;-76
2024/03/12 03:38:40;;;;;;;35.03;18.25;;;;;;;5.46;90.06;99837.81;1741079;82;27364;-76
2024/03/12 03:41:09;;;;;;;33.02;18.30;;;;;;;5.48;90.47;99834.30;1740561;82;25643;-78
2024/03/12 03:43:36;;;;;;;35.83;18.30;;;;;;;5.46;90.68;99838.60;1740777;81;25577;-78
2024/03/12 03:46:03;;;;;;;33.60;18.92;;;;;;;5.45;90.99;99842.39;1740784;82;25600;-78
2024/03/12 03:48:30;;;;;;;35.35;18.87;;;;;;;5.42;90.60;99838.38;1714020;82;25685;-78
2024/03/12 03:50:56;;;;;;;38.65;19.98;;;;;;;5.42;91.39;99837.03;1740943;82;27318;-82
2024/03/12 03:53:23;;;;;;;36.55;19.37;;;;;;;5.42;90.62;99833.02;1740545;82;25762;-78
2024/03/12 03:55:49;;;;;;;39.83;20.08;;;;;;;5.42;91.82;99842.95;1714205;82;25612;-79
2024/03/12 03:58:18;;;;;;;37.15;19.45;;;;;;;5.38;91.41;99836.02;1740915;82;26141;-79
2024/03/12 04:00:44;;;;;;;42.67;19.87;;;;;;;5.37;91.42;99834.96;1740998;82;25551;-77
2024/03/12 04:03:10;;;;;;;35.45;19.65;;;;;;;5.35;91.88;99830.44;1740994;82;27323;-77
2024/03/12 04:05:36;;;;;;;38.02;19.52;;;;;;;5.33;91.55;99830.72;1738290;82;25452;-77
2024/03/12 04:08:03;;;;;;;39.30;18.95;;;;;;;5.32;91.68;99827.77;1741061;82;25607;-76
2024/03/12 04:10:30;;;;;;;32.60;18.52;;;;;;;5.32;91.87;99833.13;1740707;81;25611;-77
2024/03/12 04:12:57;;;;;;;38.42;19.73;;;;;;;5.30;92.17;99833.96;1740074;82;25673;-77
2024/03/12 04:15:23;;;;;;;38.35;20.65;;;;;;;5.31;91.89;99824.84;1741129;82;27494;-78
2024/03/12 04:17:50;;;;;;;38.48;20.82;;;;;;;5.32;92.15;99835.02;1740892;82;25567;-77
2024/03/12 04:20:19;;;;;;;39.42;20.68;;;;;;;5.30;92.15;99829.94;1740955;82;25564;-76
2024/03/12 04:22:46;;;;;;;38.80;21.50;;;;;;;5.29;92.33;99830.22;1739697;82;25421;-77
2024/03/12 04:25:15;;;;;;;38.63;20.25;;;;;;;5.30;92.05;99833.17;1741020;82;25564;-77
2024/03/12 04:27:41;;;;;;;37.63;20.05;;;;;;;5.30;92.30;99831.83;1741107;82;27898;-76
2024/03/12 04:30:11;;;;;;;40.10;21.30;;;;;;;5.30;92.27;99830.48;1740874;82;25603;-76
2024/03/12 04:32:39;;;;;;;;;;;;;;;5.31;92.43;99838.25;1743416;82;25638;-77
2024/03/12 04:35:12;;;;;;;39.42;20.08;;;;;;;5.30;92.25;99837.98;1740900;82;25636;-77
2024/03/12 04:37:36;;;;;;;35.25;19.92;;;;;;;5.29;92.42;99839.05;1739056;82;25612;-77
2024/03/12 04:40:07;;;;;;;45.65;21.48;;;;;;;5.29;92.34;99839.05;1740849;82;27931;-77
2024/03/12 04:42:36;;;;;;;45.00;20.82;;;;;;;5.30;92.38;99837.19;1741053;82;25628;-77
2024/03/12 04:45:06;;;;;;;45.08;23.20;;;;;;;5.31;92.21;99834.23;1740867;81;25422;-77
2024/03/12 04:47:37;;;;;;;41.92;20.50;;;;;;;5.33;92.54;99839.28;1740764;82;25639;-77
2024/03/12 04:50:03;;;;;;;37.48;21.70;;;;;;;5.32;92.77;99832.34;1741138;82;25640;-76
2024/03/12 04:52:33;;;;;;;39.13;19.92;;;;;;;5.31;92.69;99837.43;1740963;82;27324;-74
2024/03/12 04:54:59;;;;;;;31.17;15.10;;;;;;;5.31;92.60;99846.81;1739843;82;25433;-80
2024/03/12 04:57:25;;;;;;;42.48;21.07;;;;;;;5.29;92.54;99836.38;1740772;82;25612;-77
2024/03/12 04:59:52;;;;;;;45.63;21.00;;;;;;;5.29;92.59;99839.05;1742539;81;25650;-76
2024/03/12 05:02:19;;;;;;;38.08;20.45;;;;;;;5.29;92.52;99834.23;1743266;82;25579;-76
2024/03/12 05:04:45;;;;;;;40.05;20.50;;;;;;;5.33;92.53;99839.28;1743280;81;27332;-76
2024/03/12 05:07:12;;;;;;;44.50;22.05;;;;;;;5.35;92.70;99842.50;1743228;82;25560;-76
2024/03/12 05:09:38;;;;;;;44.98;22.10;;;;;;;5.34;92.59;99846.25;1743274;81;25607;-76
2024/03/12 05:12:05;;;;;;;41.95;21.95;;;;;;;5.31;92.75;99842.80;1743252;82;25768;-77
2024/03/12 05:14:32;;;;;;;45.50;21.60;;;;;;;5.33;92.59;99850.00;1743255;82;25397;-76
2024/03/12 05:16:59;;;;;;;42.50;21.90;;;;;;;5.32;93.08;99849.22;1743241;82;27314;-76
2024/03/12 05:19:26;;;;;;;41.08;19.67;;;;;;;5.29;93.01;99853.02;1743110;81;25567;-77
2024/03/12 05:21:52;;;;;;;46.63;21.65;;;;;;;5.28;93.60;99852.74;1743274;82;25466;-76
2024/03/12 05:24:19;;;;;;;45.38;21.23;;;;;;;5.26;93.29;99854.91;1743258;82;25605;-76
2024/03/12 05:26:49;;;;;;;40.83;20.70;;;;;;;5.27;93.48;99850.61;1743231;82;25563;-77
2024/03/12 05:29:15;;;;;;;43.87;21.10;;;;;;;5.28;93.40;99846.86;1743613;82;27326;-74
2024/03/12 05:31:41;;;;;;;111.40;65.37;;;;;;;5.28;93.85;99859.45;1743073;82;25755;-74
2024/03/12 05:34:26;;;;;;;61.80;32.30;;;;;;;5.30;93.64;99859.44;1743235;81;25564;-73
2024/03/12 05:36:48;;;;;;;48.92;24.00;;;;;;;5.33;93.59;99852.17;1741221;82;25824;-72
2024/03/12 05:50:16;;;;;;;45.15;21.10;;;;;;;5.48;93.09;99863.80;1702249;84;25652;-75
2024/03/12 05:52:39;;;;;;;43.95;21.93;;;;;;;5.42;93.43;99863.06;1701442;84;25569;-76
2024/03/12 05:55:07;;;;;;;38.75;20.90;;;;;;;5.41;93.15;99864.14;1702276;84;27388;-75
2024/03/12 05:57:33;;;;;;;41.50;20.05;;;;;;;5.41;93.31;99865.48;1702126;84;25603;-77
2024/03/12 06:00:01;;;;;;;46.15;21.77;;;;;;;5.39;93.34;99864.42;1707406;83;25749;-76
2024/03/12 06:02:27;;;;;;;44.42;21.33;;;;;;;5.36;93.41;99858.83;1719870;82;25617;-75
2024/03/12 06:04:55;;;;;;;41.05;20.40;;;;;;;5.38;93.43;99872.23;1719903;83;25712;-76
2024/03/12 06:07:22;;;;;;;43.85;21.07;;;;;;;5.40;93.59;99866.03;1720078;82;27335;-75
2024/03/12 06:09:48;;;;;;;41.30;20.77;;;;;;;5.39;93.44;99865.77;1718829;83;25663;-76
2024/03/12 06:12:15;;;;;;;41.77;21.23;;;;;;;5.40;93.60;99864.69;1718094;83;26532;-76
2024/03/12 06:14:41;;;;;;;43.23;21.85;;;;;;;5.41;93.79;99864.14;1718256;82;26305;-76
2024/03/12 06:17:08;;;;;;;40.75;20.97;;;;;;;5.42;93.69;99871.91;1718362;83;25785;-80
2024/03/12 06:19:34;;;;;;;40.15;21.37;;;;;;;5.42;93.63;99869.22;1740183;82;27383;-76
2024/03/12 06:22:01;;;;;;;41.55;21.23;;;;;;;5.43;93.60;99868.67;1749140;82;25728;-76
2024/03/12 06:24:27;;;;;;;43.98;21.27;;;;;;;5.45;93.66;99873.23;1749086;82;26229;-77
2024/03/12 06:26:53;;;;;;;38.28;20.35;;;;;;;5.45;94.06;99873.23;1750168;82;25674;-76
2024/03/12 06:29:20;;;;;;;46.45;21.45;;;;;;;5.46;93.82;99879.39;1750243;82;25450;-76
2024/03/12 06:31:46;;;;;;;46.18;22.13;;;;;;;5.43;93.70;99877.54;1750721;82;27325;-76
2024/03/12 06:34:12;;;;;;;41.73;21.12;;;;;;;5.45;93.86;99883.97;1750594;82;25454;-76
2024/03/12 06:36:39;;;;;;;43.90;20.62;;;;;;;5.46;93.99;99886.09;1750690;82;25491;-75
2024/03/12 06:39:06;;;;;;;39.33;20.30;;;;;;;5.47;93.74;99891.73;1750190;82;26269;-76
2024/03/12 06:41:32;;;;;;;42.10;21.20;;;;;;;5.46;93.74;99887.44;1750587;82;25460;-76
2024/03/12 06:43:59;;;;;;;44.33;22.30;;;;;;;5.48;93.79;99885.27;1750361;81;28012;-76
2024/03/12 06:46:26;;;;;;;43.08;21.82;;;;;;;5.50;93.96;99889.80;1749620;82;25649;-77
2024/03/12 06:48:53;;;;;;;43.87;22.80;;;;;;;5.51;93.83;99892.75;1749962;82;25475;-75
2024/03/12 06:51:20;;;;;;;47.30;24.32;;;;;;;5.56;93.95;99888.67;1750670;82;25847;-75
2024/03/12 06:53:46;;;;;;;37.85;21.97;;;;;;;5.58;93.91;99888.66;1750247;81;25406;-74
2024/03/12 06:56:16;;;;;;;44.30;22.50;;;;;;;5.61;93.99;99888.06;1750455;82;28021;-74
2024/03/12 06:58:44;;;;;;;45.98;22.98;;;;;;;5.67;93.88;99892.03;1750682;81;25635;-74
2024/03/12 07:01:09;;;;;;;42.98;20.72;;;;;;;5.72;93.93;99893.31;1744364;82;25719;-68
2024/03/12 07:03:39;;;;;;;40.00;21.73;;;;;;;5.75;93.72;99895.43;1740459;82;25691;-66
2024/03/12 07:06:07;;;;;;;48.52;22.67;;;;;;;5.76;93.42;99900.52;1740485;82;32381;-67
2024/03/12 07:08:38;;;;;;;43.58;21.93;;;;;;;5.79;93.42;99892.45;1739505;82;27336;-68
2024/03/12 07:11:03;;;;;;;38.60;21.60;;;;;;;5.83;93.30;99905.54;1739921;82;25484;-67
2024/03/12 07:13:30;;;;;;;42.67;21.02;;;;;;;5.83;93.37;99901.52;1740969;82;25447;-67
2024/03/12 07:15:57;;;;;;;45.35;20.90;;;;;;;5.83;93.04;99907.44;1739538;82;25620;-68
2024/03/12 07:18:24;;;;;;;46.42;22.77;;;;;;;5.79;92.95;99901.84;1740649;82;25417;-66
2024/03/12 07:20:54;;;;;;;39.23;20.05;;;;;;;5.82;93.11;99905.82;1741044;82;27172;-67
2024/03/12 07:23:19;;;;;;;44.93;21.62;;;;;;;5.82;93.09;99897.22;1740837;82;25608;-69
2024/03/12 07:25:46;;;;;;;43.02;20.30;;;;;;;5.82;93.20;99899.91;1740442;82;25496;-68
2024/03/12 07:28:13;;;;;;;46.40;20.92;;;;;;;5.83;93.14;99901.52;1740689;82;26180;-67
2024/03/12 07:30:41;;;;;;;47.85;22.22;;;;;;;5.85;93.24;99904.70;1740764;82;25481;-67
2024/03/12 07:33:09;;;;;;;42.10;21.62;;;;;;;5.88;93.09;99908.16;1741061;82;27497;-78
2024/03/12 07:35:37;;;;;;;42.62;21.65;;;;;;;5.90;92.93;99905.98;1741098;82;25439;-76
2024/03/12 07:38:04;;;;;;;39.65;21.30;;;;;;;5.92;92.96;99907.83;1740826;82;25636;-77
2024/03/12 07:40:30;;;;;;;36.90;20.27;;;;;;;5.94;92.75;99909.71;1740910;82;25667;-76
2024/03/12 07:42:56;;;;;;;47.03;20.95;;;;;;;5.98;92.62;99908.07;1740817;82;25469;-77
2024/03/12 07:45:24;;;;;;;40.45;19.52;;;;;;;6.00;92.89;99903.76;1741156;82;27316;-78
2024/03/12 07:47:52;;;;;;;47.73;19.95;;;;;;;5.96;92.42;99912.14;1739223;82;25728;-77
2024/03/12 07:50:18;;;;;;;47.05;21.07;;;;;;;5.93;92.33;99901.95;1740693;82;25584;-77
2024/03/12 07:52:45;;;;;;;41.58;21.42;;;;;;;5.96;92.44;99916.17;1740281;82;25563;-77
2024/03/12 07:55:12;;;;;;;40.38;20.75;;;;;;;5.96;92.35;99908.12;1740711;82;25469;-78
2024/03/12 07:57:39;;;;;;;46.45;20.35;;;;;;;5.98;92.31;99910.75;1740763;82;27332;-77
2024/03/12 08:00:14;;;;;;;39.55;20.95;;;;;;;6.03;92.43;99910.42;1741026;82;25406;-75
2024/03/12 08:02:39;;;;;;;41.98;20.68;;;;;;;6.06;92.29;99912.02;1743129;82;25627;-81
2024/03/12 08:05:07;;;;;;;52.03;26.93;;;;;;;6.08;92.23;99910.36;1744330;82;25625;-80
2024/03/12 08:07:33;;;;;;;84.80;56.92;;;;;;;6.11;92.29;99912.47;1744410;82;25311;-76
2024/03/12 08:10:00;;;;;;;45.08;23.02;;;;;;;6.13;92.13;99908.95;1743235;81;27321;-76
2024/03/12 08:12:26;;;;;;;40.98;20.77;;;;;;;6.19;92.28;99905.67;1743046;82;25413;-80
2024/03/12 08:14:52;;;;;;;41.48;19.73;;;;;;;6.22;92.08;99909.92;1743132;81;25470;-78
2024/03/12 08:17:19;;;;;;;43.05;21.48;;;;;;;6.25;91.85;99912.04;1743099;81;25587;-76
2024/03/12 08:19:48;;;;;;;43.30;20.48;;;;;;;6.28;91.60;99908.78;1743142;82;25409;-77
2024/03/12 08:22:14;;;;;;;41.20;21.50;;;;;;;6.29;91.43;99914.94;1743186;82;27400;-76
2024/03/12 08:24:40;;;;;;;36.08;20.62;;;;;;;6.33;91.50;99915.42;1743073;82;25398;-77
2024/03/12 08:27:07;;;;;;;38.25;19.77;;;;;;;6.33;91.35;99912.73;1743015;82;25430;-78
2024/03/12 08:29:34;;;;;;;36.33;18.87;;;;;;;6.38;91.21;99907.03;1742975;82;26305;-79
2024/03/12 08:32:00;;;;;;;41.95;19.27;;;;;;;6.40;91.27;99909.66;1743162;81;25413;-78
2024/03/12 08:34:27;;;;;;;39.95;20.12;;;;;;;6.44;91.11;99902.64;1743203;82;26874;-79
2024/03/12 08:36:55;;;;;;;35.28;17.98;;;;;;;6.44;90.67;99909.36;1742916;82;25850;-78
2024/03/12 08:39:22;;;;;;;38.10;19.77;;;;;;;6.47;90.55;99910.65;1743071;82;25622;-78
2024/03/12 08:41:48;;;;;;;35.10;19.37;;;;;;;6.47;90.44;99910.13;1743101;82;26128;-78
2024/03/12 08:44:14;;;;;;;40.43;20.05;;;;;;;6.49;90.51;99909.28;1743213;82;25506;-78
2024/03/12 08:46:41;;;;;;;35.58;18.92;;;;;;;6.56;90.72;99916.98;1743101;82;28093;-78
2024/03/12 08:49:10;;;;;;;60.88;32.23;;;;;;;6.60;90.45;99915.85;1744371;82;25206;-86
2024/03/12 08:51:39;;;;;;;37.35;19.80;;;;;;;6.65;90.55;99917.13;1744974;81;25607;-76
2024/03/12 08:54:06;;;;;;;39.53;19.87;;;;;;;6.65;89.77;99917.91;1743377;82;26310;-78
2024/03/12 08:56:37;;;;;;;41.02;20.27;;;;;;;6.65;89.51;99917.13;1743337;82;25415;-77
2024/03/12 08:59:05;;;;;;;38.67;20.05;;;;;;;6.66;89.60;99919.52;1743369;82;33486;-77
2024/03/12 09:01:34;;;;;;;32.83;18.73;;;;;;;6.70;89.56;99916.48;1743131;82;25633;-78
2024/03/12 09:04:02;;;;;;;36.42;17.73;;;;;;;6.71;89.14;99924.03;1743427;82;32492;-77
2024/03/12 09:06:29;;;;;;;38.17;18.73;;;;;;;6.73;89.26;99921.84;1743276;82;25612;-77
2024/03/12 09:08:56;;;;;;;36.08;18.05;;;;;;;6.73;88.87;99917.81;1743241;82;25735;-78
2024/03/12 09:11:22;;;;;;;37.63;18.65;;;;;;;6.73;88.73;99913.78;1743305;82;27895;-78
2024/03/12 09:13:50;;;;;;;28.70;16.57;;;;;;;6.75;88.75;99925.03;1743237;82;25644;-77
2024/03/12 09:16:16;;;;;;;38.08;18.00;;;;;;;6.77;88.63;99928.22;1743171;82;25470;-78
2024/03/12 09:18:44;;;;;;;35.25;17.73;;;;;;;6.74;88.25;99927.45;1743127;82;25582;-78
2024/03/12 09:21:14;;;;;;;35.78;17.75;;;;;;;6.72;88.18;99921.58;1743269;82;25409;-78
2024/03/12 09:23:42;;;;;;;35.83;17.70;;;;;;;6.73;88.21;99922.63;1743212;82;28024;-77
2024/03/12 09:26:09;;;;;;;36.42;17.50;;;;;;;6.75;88.36;99923.69;1743054;82;25627;-77
2024/03/12 09:28:38;;;;;;;28.77;17.10;;;;;;;6.76;88.11;99927.16;1742976;82;25437;-77
2024/03/12 09:31:08;;;;;;;30.00;16.40;;;;;;;6.78;88.12;99922.32;1743096;82;25633;-79
2024/03/12 09:33:34;;;;;;;33.02;17.07;;;;;;;6.81;88.06;99918.50;1743065;81;33064;-77
2024/03/12 09:36:01;;;;;;;33.10;17.23;;;;;;;6.82;87.81;99926.80;1743030;82;28016;-80
2024/03/12 09:38:28;;;;;;;31.95;15.72;;;;;;;6.82;87.53;99923.32;1743650;82;25457;-79
2024/03/12 09:40:59;;;;;;;32.45;16.35;;;;;;;6.83;87.49;99922.23;1744230;81;25195;-77
2024/03/12 09:43:34;;;;;;;37.35;17.85;;;;;;;6.84;87.73;99924.61;1744222;82;25670;-79
2024/03/12 09:46:05;;;;;;;31.27;14.98;;;;;;;6.89;87.85;99920.50;1743165;82;25413;-79
2024/03/12 09:48:34;;;;;;;30.92;16.25;;;;;;;6.95;87.96;99923.10;1743114;82;27306;-78
2024/03/12 09:51:01;;;;;;;31.95;17.55;;;;;;;7.00;87.66;99922.50;1743072;82;25580;-78
2024/03/12 09:53:36;;;;;;;37.90;19.35;;;;;;;7.06;87.87;99928.02;1743507;82;25462;-85
2024/03/12 09:56:06;;;;;;;44.18;25.25;;;;;;;7.09;87.38;99928.00;1743918;82;25608;-86
2024/03/12 09:58:36;;;;;;;;;;;;;;;7.15;87.28;99932.73;1744873;82;25719;-68
2024/03/12 10:01:10;;;;;;;27.05;15.75;;;;;;;7.17;86.92;99931.37;1742162;82;28046;-66
2024/03/12 10:03:35;;;;;;;27.22;16.77;;;;;;;7.16;86.58;99937.03;1739865;82;25409;-66
2024/03/12 10:06:06;;;;;;;32.75;17.23;;;;;;;7.19;86.59;99933.20;1740549;82;25751;-67
2024/03/12 10:08:32;;;;;;;28.25;15.55;;;;;;;7.23;86.50;99934.20;1740266;82;26067;-67
2024/03/12 10:11:07;;;;;;;28.38;16.42;;;;;;;7.23;85.89;99932.06;1740226;82;25505;-67
2024/03/12 10:13:28;;;;;;;35.15;16.75;;;;;;;7.20;85.60;99934.81;1714574;82;27520;-67
2024/03/12 10:16:07;;;;;;;26.93;15.88;;;;;;;7.22;85.45;99939.87;1740457;82;25717;-67
2024/03/12 10:18:34;;;;;;;28.07;15.88;;;;;;;7.18;85.39;99931.59;1740582;82;25541;-65
2024/03/12 10:21:06;;;;;;;33.80;16.93;;;;;;;7.18;85.65;99934.29;1740864;82;25624;-66
2024/03/12 10:23:40;;;;;;;27.52;15.53;;;;;;;7.26;86.39;99934.17;1740593;82;25589;-67
2024/03/12 10:26:18;;;;;;;28.05;16.55;;;;;;;7.34;86.30;99932.16;1740799;82;27714;-67
2024/03/12 10:28:50;;;;;;;29.92;16.20;;;;;;;7.44;86.48;99933.32;1740337;82;25675;-67
2024/03/12 10:31:14;;;;;;;29.92;16.40;;;;;;;7.54;86.41;99930.97;1739747;82;25615;-66
2024/03/12 10:33:49;;;;;;;32.15;15.85;;;;;;;7.62;85.55;99933.53;1740474;82;25665;-66
2024/03/12 10:36:34;;;;;;;32.15;15.63;;;;;;;7.64;85.51;99932.16;1740583;82;25395;-68
2024/03/12 10:39:06;;;;;;;26.30;14.73;;;;;;;7.74;85.61;99931.14;1740906;81;27216;-66
2024/03/12 10:41:34;;;;;;;25.25;14.73;;;;;;;7.79;84.91;99932.39;1740769;82;25409;-67
2024/03/12 10:44:12;;;;;;;23.40;15.30;;;;;;;7.83;84.43;99931.25;1738677;82;25704;-68
2024/03/12 10:46:46;;;;;;;25.75;14.75;;;;;;;7.88;84.69;99931.14;1740611;82;26233;-66
2024/03/12 10:49:17;;;;;;;26.45;14.43;;;;;;;7.99;85.13;99930.41;1740702;82;25555;-67
2024/03/12 10:51:48;;;;;;;25.35;14.50;;;;;;;8.11;84.93;99929.35;1740752;82;27334;-67
2024/03/12 10:54:18;;;;;;;24.87;14.33;;;;;;;8.20;84.48;99932.13;1739600;82;25528;-67
2024/03/12 10:56:50;;;;;;;27.45;14.83;;;;;;;8.21;83.08;99930.48;1739820;82;25516;-66
2024/03/12 10:59:21;;;;;;;24.82;14.47;;;;;;;8.25;83.35;99929.89;1740755;82;26637;-67
2024/03/12 11:01:51;;;;;;;27.65;14.63;;;;;;;8.28;83.00;99930.08;1740529;82;25468;-66
2024/03/12 11:04:22;;;;;;;24.70;14.68;;;;;;;8.26;82.36;99930.12;1740782;82;28385;-66
2024/03/12 11:06:53;;;;;;;24.05;14.50;;;;;;;8.21;81.97;99928.34;1740876;82;26084;-65
2024/03/12 11:09:21;;;;;;;26.07;15.28;;;;;;;8.16;81.84;99928.45;1712391;82;25722;-60
2024/03/12 11:11:52;;;;;;;30.02;15.63;;;;;;;8.16;81.77;99927.89;1740779;82;25761;-61
2024/03/12 11:14:20;;;;;;;30.97;14.93;;;;;;;8.08;81.63;99927.81;1740197;82;25585;-61
2024/03/12 11:16:48;;;;;;;27.25;15.05;;;;;;;8.04;81.60;99923.58;1740758;82;27973;-60
2024/03/12 11:19:27;;;;;;;26.77;14.83;;;;;;;7.99;81.89;99923.13;1740635;82;25472;-61
2024/03/12 11:22:13;;;;;;;27.45;15.23;;;;;;;8.01;81.72;99923.61;1740663;82;25440;-61
2024/03/12 11:24:47;;;;;;;22.48;14.28;;;;;;;7.99;81.88;99921.77;1740366;82;25575;-61
2024/03/12 11:27:25;;;;;;;23.90;14.53;;;;;;;8.04;82.00;99927.62;1740793;82;25405;-61
2024/03/12 11:30:18;;;;;;;30.65;18.67;;;;;;;8.04;81.98;99922.23;1740571;82;27213;-70
2024/03/12 11:32:49;;;;;;;28.57;16.93;;;;;;;8.07;81.69;99924.86;1740961;82;25418;-73
2024/03/12 11:35:25;;;;;;;27.17;14.58;;;;;;;8.06;81.83;99920.59;1741055;82;25619;-62
2024/03/12 11:38:05;;;;;;;26.97;15.30;;;;;;;8.07;81.49;99920.29;1740058;82;25992;-62
2024/03/12 11:40:41;;;;;;;27.10;14.78;;;;;;;8.09;81.60;99924.82;1740676;82;25450;-61
2024/03/12 11:43:16;;;;;;;24.98;16.02;;;;;;;8.12;81.62;99924.75;1739595;82;27706;-62